createdAt,value
2023-01-17T00:02:54.138Z,0.10
2023-01-17T00:08:14.572Z,0.25
2023-01-17T00:13:16.359Z,0.55
2023-01-17T00:18:18.043Z,0.30
2023-01-17T00:23:43.352Z,0.20
2023-01-17T00:28:45.953Z,0.40
2023-01-17T00:33:47.835Z,0.22
2023-01-17T00:38:49.461Z,0.73
2023-01-17T00:44:09.743Z,0.10
2023-01-17T00:49:29.977Z,0.20
2023-01-17T00:54:50.203Z,0.57
2023-01-17T01:00:10.456Z,0.22
2023-01-17T01:05:32.297Z,0.47
2023-01-17T01:10:52.565Z,0.20
2023-01-17T01:16:13.297Z,1.10
2023-01-17T01:21:33.257Z,0.10
2023-01-17T01:26:53.615Z,1.20
2023-01-17T01:32:13.861Z,1.17
2023-01-17T01:37:15.521Z,0.63
2023-01-17T01:42:17.596Z,0.32
2023-01-17T01:47:36.284Z,0.30
2023-01-17T01:52:44.858Z,0.40
2023-01-17T01:57:50.695Z,0.40
2023-01-17T02:02:54.892Z,0.68
2023-01-17T02:08:08.794Z,0.10
2023-01-17T02:13:12.862Z,0.10
2023-01-17T02:18:37.473Z,0.63
2023-01-17T02:23:44.316Z,0.82
2023-01-17T02:28:51.779Z,1.40
2023-01-17T02:34:06.060Z,0.17
2023-01-17T02:39:24.408Z,0.25
2023-01-17T02:44:26.109Z,0.35
2023-01-17T02:49:32.104Z,0.70
2023-01-17T02:54:54.054Z,0.98
2023-01-17T03:00:04.906Z,1.15
2023-01-17T03:05:21.924Z,0.15
2023-01-17T03:10:24.304Z,0.75
2023-01-17T03:15:25.951Z,0.30
2023-01-17T03:20:27.697Z,0.63
2023-01-17T03:25:29.500Z,0.10
2023-01-17T03:30:31.181Z,1.00
2023-01-17T03:35:32.849Z,0.30
2023-01-17T03:40:34.471Z,0.10
2023-01-17T03:45:36.301Z,0.20
2023-01-17T03:50:38.298Z,0.40
2023-01-17T03:55:40.233Z,0.28
2023-01-17T04:00:42.550Z,0.65
2023-01-17T04:05:44.213Z,1.13
2023-01-17T04:10:45.906Z,0.30
2023-01-17T04:15:50.320Z,1.00
2023-01-17T04:20:52.594Z,0.52
2023-01-17T04:25:54.255Z,0.47
2023-01-17T04:31:00.300Z,0.65
2023-01-17T04:36:01.999Z,0.63
2023-01-17T04:41:03.675Z,1.05
2023-01-17T04:46:10.218Z,1.40
2023-01-17T04:51:12.416Z,0.50
2023-01-17T04:56:14.377Z,1.35
2023-01-17T05:01:16.071Z,0.30
2023-01-17T05:06:17.770Z,1.08
2023-01-17T05:11:19.513Z,0.38
2023-01-17T05:16:21.224Z,1.05
2023-01-17T05:21:23.129Z,0.40
2023-01-17T05:26:24.878Z,1.30
2023-01-17T05:31:26.648Z,1.10
2023-01-17T05:36:28.412Z,0.40
2023-01-17T05:41:30.107Z,0.20
2023-01-17T05:46:31.785Z,0.95
2023-01-17T05:51:33.677Z,0.57
2023-01-17T05:56:35.700Z,2.17
2023-01-17T06:01:37.372Z,0.40
2023-01-17T06:06:39.031Z,0.90
2023-01-17T06:11:40.707Z,0.73
2023-01-17T06:16:42.619Z,2.70
2023-01-17T06:21:44.285Z,0.20
2023-01-17T06:26:45.964Z,0.22
2023-01-17T06:31:47.704Z,1.17
2023-01-17T06:36:49.350Z,1.02
2023-01-17T06:41:51.035Z,0.20
2023-01-17T06:46:53.621Z,0.63
2023-01-17T06:51:55.442Z,0.68
2023-01-17T06:56:57.254Z,0.32
2023-01-17T07:01:59.286Z,0.32
2023-01-17T07:07:01.359Z,0.35
2023-01-17T07:12:03.787Z,1.40
2023-01-17T07:17:06.076Z,1.38
2023-01-17T07:22:11.104Z,0.50
2023-01-17T07:27:12.826Z,1.52
2023-01-17T07:32:14.498Z,2.92
2023-01-17T07:37:16.266Z,0.30
2023-01-17T07:42:17.972Z,2.38
2023-01-17T07:47:20.206Z,1.52
2023-01-17T07:52:21.907Z,4.47
2023-01-17T07:57:23.741Z,0.40
2023-01-17T08:02:25.478Z,1.15
2023-01-17T08:07:27.211Z,2.35
2023-01-17T08:12:29.726Z,3.20
2023-01-17T08:17:31.466Z,3.88
2023-01-17T08:22:33.499Z,4.28
2023-01-17T08:27:36.244Z,1.92
2023-01-17T08:32:40.946Z,3.20
2023-01-17T08:37:42.908Z,1.77
2023-01-17T08:42:44.828Z,8.55
2023-01-17T08:47:46.920Z,3.20
2023-01-17T08:52:49.614Z,8.63
2023-01-17T08:57:51.530Z,5.10
2023-01-17T09:02:53.951Z,4.57
2023-01-17T09:07:56.787Z,5.22
2023-01-17T09:12:58.443Z,1.52
2023-01-17T09:18:01.598Z,1.73
2023-01-17T09:23:03.911Z,3.28
2023-01-17T09:28:05.668Z,1.63
2023-01-17T09:33:07.324Z,3.53
2023-01-17T09:38:09.064Z,1.50
2023-01-17T09:43:44.491Z,5.30
2023-01-17T09:48:46.877Z,4.65
2023-01-17T09:53:49.084Z,3.97
2023-01-17T09:59:02.820Z,7.18
2023-01-17T10:04:10.616Z,24.80
2023-01-17T10:09:15.189Z,8.70
2023-01-17T10:14:22.618Z,4.88
2023-01-17T10:19:33.113Z,10.25
2023-01-17T10:25:13.273Z,12.70
2023-01-17T10:30:32.634Z,13.10
2023-01-17T10:35:39.202Z,5.35
2023-01-17T10:40:55.352Z,1.75
2023-01-17T10:45:57.627Z,1.63
2023-01-17T10:51:22.479Z,1.67
2023-01-17T10:56:28.386Z,11.15
2023-01-17T11:01:30.453Z,3.45
2023-01-17T11:06:33.480Z,6.40
2023-01-17T11:11:37.621Z,4.43
2023-01-17T11:16:39.642Z,5.25
2023-01-17T11:21:52.175Z,5.95
2023-01-17T11:26:54.139Z,9.52
2023-01-17T11:31:58.899Z,7.85
2023-01-17T11:37:20.897Z,6.82
2023-01-17T11:42:38.720Z,9.02
2023-01-17T11:47:40.486Z,8.93
2023-01-17T11:52:42.602Z,6.72
2023-01-17T11:57:50.580Z,5.45
2023-01-17T12:03:10.541Z,6.07
2023-01-17T12:08:32.232Z,8.20
2023-01-17T12:14:17.309Z,7.22
2023-01-17T12:19:55.489Z,11.02
2023-01-17T12:25:24.619Z,6.25
2023-01-17T12:30:41.431Z,9.15
2023-01-17T12:35:50.943Z,5.72
2023-01-17T12:41:03.895Z,7.60
2023-01-17T12:46:21.321Z,7.30
2023-01-17T12:51:29.514Z,5.40
2023-01-17T12:56:37.464Z,7.93
2023-01-17T13:01:43.458Z,7.68
2023-01-17T13:07:00.627Z,9.57
2023-01-17T13:12:07.177Z,8.43
2023-01-17T13:17:20.932Z,9.90
2023-01-17T13:22:27.169Z,14.50
2023-01-17T13:27:49.782Z,10.02
2023-01-17T13:33:03.662Z,15.27
2023-01-17T13:38:43.972Z,16.42
2023-01-17T13:44:04.585Z,9.00
2023-01-17T13:49:35.253Z,10.45
2023-01-17T13:54:54.802Z,15.50
2023-01-17T13:59:58.046Z,18.63
2023-01-17T14:05:05.523Z,18.23
2023-01-17T14:10:22.825Z,11.90
2023-01-17T14:15:29.956Z,7.68
2023-01-17T14:20:45.945Z,6.93
2023-01-17T14:25:47.665Z,6.90
2023-01-17T14:30:54.504Z,4.75
2023-01-17T14:36:04.847Z,4.55
2023-01-17T14:41:15.434Z,8.50
2023-01-17T14:46:26.672Z,4.35
2023-01-17T14:51:28.902Z,3.72
2023-01-17T14:56:31.281Z,3.45
2023-01-17T15:01:34.204Z,4.22
2023-01-17T15:06:41.087Z,5.53
2023-01-17T15:11:42.886Z,24.48
2023-01-17T15:16:44.649Z,15.50
2023-01-17T15:21:52.397Z,17.50
2023-01-17T15:26:54.924Z,11.45
2023-01-17T15:32:03.516Z,13.20
2023-01-17T15:37:32.743Z,6.43
2023-01-17T15:42:38.655Z,15.57
2023-01-17T15:47:40.482Z,17.35
2023-01-17T15:53:00.615Z,11.52
2023-01-17T15:58:04.319Z,7.05
2023-01-17T16:03:26.421Z,13.25
2023-01-17T16:08:40.193Z,13.40
2023-01-17T16:13:43.627Z,11.57
2023-01-17T16:18:46.742Z,5.80
2023-01-17T16:23:48.818Z,7.80
2023-01-17T16:28:51.385Z,6.68
2023-01-17T16:33:53.465Z,13.38
2023-01-17T16:38:55.126Z,13.90
2023-01-17T16:44:02.707Z,4.68
2023-01-17T16:49:05.051Z,3.00
2023-01-17T16:54:06.785Z,3.63
2023-01-17T16:59:08.705Z,5.28
2023-01-17T17:04:13.051Z,2.22
2023-01-17T17:09:14.739Z,3.63
2023-01-17T17:14:16.465Z,1.80
2023-01-17T17:19:19.455Z,3.92
2023-01-17T17:24:21.114Z,5.18
2023-01-17T17:29:22.771Z,4.75
2023-01-17T17:34:27.833Z,3.38
2023-01-17T17:39:29.508Z,4.03
2023-01-17T17:44:31.330Z,5.75
2023-01-17T17:49:33.035Z,2.47
2023-01-17T17:54:35.475Z,15.20
2023-01-17T17:59:37.268Z,5.88
2023-01-17T18:04:38.993Z,3.17
2023-01-17T18:09:40.853Z,3.95
2023-01-17T18:14:42.649Z,4.22
2023-01-17T18:19:46.250Z,3.50
2023-01-17T18:24:47.940Z,14.00
2023-01-17T18:29:49.660Z,4.35
2023-01-17T18:34:51.640Z,3.35
2023-01-17T18:39:53.314Z,3.50
2023-01-17T18:44:55.009Z,2.35
2023-01-17T18:49:56.869Z,3.75
2023-01-17T18:54:58.540Z,1.85
2023-01-17T19:00:02.431Z,1.83
2023-01-17T19:05:05.684Z,1.13
2023-01-17T19:10:07.933Z,3.83
2023-01-17T19:15:10.307Z,2.15
2023-01-17T19:20:13.417Z,2.53
2023-01-17T19:25:15.383Z,1.50
2023-01-17T19:30:17.712Z,1.73
2023-01-17T19:35:22.460Z,2.45
2023-01-17T19:40:24.280Z,2.60
2023-01-17T19:45:26.117Z,1.65
2023-01-17T19:50:27.839Z,1.02
2023-01-17T19:55:29.573Z,1.67
2023-01-17T20:00:45.902Z,1.63
2023-01-17T20:05:55.904Z,1.25
2023-01-17T20:11:02.459Z,2.45
2023-01-17T20:16:06.238Z,0.93
2023-01-17T20:21:10.346Z,2.05
2023-01-17T20:26:12.153Z,1.10
2023-01-17T20:31:16.556Z,0.90
2023-01-17T20:36:21.053Z,1.20
2023-01-17T20:41:30.203Z,1.00
2023-01-17T20:46:35.696Z,1.10
2023-01-17T20:51:40.221Z,1.23
2023-01-17T20:56:42.883Z,1.42
2023-01-17T21:01:45.339Z,1.13
2023-01-17T21:06:47.660Z,1.63
2023-01-17T21:11:49.494Z,1.55
2023-01-17T21:16:51.398Z,1.40
2023-01-17T21:21:53.262Z,1.13
2023-01-17T21:26:55.378Z,1.30
2023-01-17T21:31:57.121Z,1.13
2023-01-17T21:36:58.972Z,1.20
2023-01-17T21:42:00.636Z,1.33
2023-01-17T21:47:05.296Z,1.52
2023-01-17T21:52:07.126Z,2.72
2023-01-17T21:57:28.648Z,1.98
2023-01-17T22:02:30.378Z,12.88
2023-01-17T22:07:32.061Z,2.63
2023-01-17T22:12:34.098Z,4.07
2023-01-17T22:17:38.492Z,4.40
2023-01-17T22:22:40.246Z,5.00
2023-01-17T22:27:41.927Z,3.75
2023-01-17T22:32:43.583Z,8.15
2023-01-17T22:37:45.280Z,8.50
2023-01-17T22:42:47.385Z,3.20
2023-01-17T22:47:49.195Z,3.13
2023-01-17T22:52:50.849Z,10.93
2023-01-17T22:57:52.513Z,1.75
2023-01-17T23:02:54.225Z,18.95
2023-01-17T23:07:56.014Z,2.78
2023-01-17T23:12:57.966Z,6.47
2023-01-17T23:18:25.905Z,3.00
2023-01-17T23:23:27.606Z,2.35
2023-01-17T23:28:29.264Z,2.55
2023-01-17T23:33:30.921Z,2.42
2023-01-17T23:38:37.700Z,2.17
2023-01-17T23:43:39.377Z,2.95
2023-01-17T23:48:41.052Z,2.75
2023-01-17T23:53:42.953Z,3.30
2023-01-17T23:58:44.963Z,4.30
